• Join FlightAware (Why Join?)
  • Login
  • US Flag 
Rudolph Flight #1: Arrived! 
05:38PM EST


 

Airport Tracker/Info


-or-


 

Live Flight TrackerFlight Track Log ✈ N2827N ✈ 30-Jul-2014 ✈ KFMY - KPIE

Flight Track Log - Related Links

Times and Time Zones

All times are in EDT time to prevent confusion due to time zone crossing. See the N2827N flight status page for this flight to view local times or setup timezone preferences in your user account.

Time Position Orientation Groundspeed Altitude Reporting Facility
EDT Latitude Longitude Course Direction KTS MPH feet Rate Location/Type
11:40AM 26.5669 -81.9361 331° Northwest 96 110 1,900  Level Miami Center
11:41AM 26.5925 -81.9561 325° Northwest 111 128 2,400 480 Climbing Miami Center
11:42AM 26.6214 -81.9767 328° Northwest 112 129 2,900 480 Climbing Miami Center
11:43AM 26.6475 -81.9944 329° Northwest 112 129 3,400 480 Climbing Miami Center
11:44AM 26.7922 -81.9802 340° North  Level FlightAware Approximate
11:44AM 26.6778 -82.0150 329° Northwest 114 131 4,000  Level Miami Center
11:45AM 26.8250 -82.0051 331° Northwest  Level FlightAware Approximate
11:45AM 26.7050 -82.0361 325° Northwest 116 133 4,400  Level Miami Center
11:46AM 26.7367 -82.0600 326° Northwest 125 144 4,900 480 Climbing Miami Center
11:47AM 26.7656 -82.0825 325° Northwest 125 144 5,400 480 Climbing Miami Center
11:48AM 26.7964 -82.1067 325° Northwest 126 145 5,900 480 Climbing Miami Center
11:49AM 26.8269 -82.1314 324° Northwest 126 145 6,400 300 Climbing Miami Center
11:50AM 26.8556 -82.1544 324° Northwest 128 147 6,600 60 Climbing Miami Center
11:52AM 26.9228 -82.2111 323° Northwest 148 170 6,600 -60 Level Miami Center
11:53AM 26.9594 -82.2444 321° Northwest 156 180 6,500 -60 Descending Miami Center
11:54AM 26.9928 -82.2744 321° Northwest 156 180 6,500  Level Miami Center
11:55AM 27.0244 -82.3031 321° Northwest 156 180 6,500  Level Miami Center
11:56AM 27.0578 -82.3331 321° Northwest 156 180 6,500  Level Miami Center
11:57AM 27.0989 -82.3683 323° Northwest 156 180 6,500  Level Miami Center
11:58AM 27.1331 -82.3981 322° Northwest 156 180 6,500  Level Miami Center
11:59AM 27.1681 -82.4267 324° Northwest 155 178 6,600  Climbing Miami Center
12:00PM 27.2031 -82.4536 326° Northwest 156 180 6,500 -60 Descending Miami Center
12:01PM 27.2392 -82.4814 326° Northwest 156 180 6,500  Level Miami Center
12:02PM 27.2731 -82.5100 323° Northwest 155 178 6,500 -180 Level Miami Center
12:03PM 27.3144 -82.5472 321° Northwest 157 181 6,200 -300 Descending Miami Center
12:05PM 27.3667 -82.5833 328° Northwest 167 192 5,900 -360 Descending Tampa TRACON
12:06PM 27.4000 -82.6000 336° Northwest 168 193 5,500 -360 Descending Tampa TRACON
12:07PM 27.4500 -82.6333 329° Northwest 167 192 5,200 -360 Descending Tampa TRACON
12:08PM 27.4778 -82.6467 337° Northwest 166 191 4,900 -360 Descending Miami Center
12:09PM 27.5231 -82.6583 347° North 166 191 4,500 -480 Descending Miami Center
12:10PM 27.5789 -82.6642 355° North 166 191 4,000 -540 Descending Miami Center
12:11PM 27.6258 -82.6675 356° North 166 191 3,400 -600 Descending Miami Center
12:12PM 27.6667 -82.6667 North 165 190 2,900 -480 Descending Tampa TRACON
12:13PM 27.7167 -82.6833 344° North 157 181 2,500 -420 Descending Tampa TRACON
12:14PM 27.7667 -82.6833 360° North 148 170 2,100 -480 Descending Tampa TRACON
12:15PM 27.8000 -82.6833 360° North 154 177 1,500 -600 Descending Tampa TRACON
12:16PM 27.8500 -82.6833 360° North 156 180 900 -600 Descending Tampa TRACON
12:17PM 27.8833 -82.6833 360° North 110 127 400 -540 Descending Tampa TRACON
12:19PM 27.9000 -82.6833 348° North  Level FlightAware Approximate
12:26PM 27.9100 -82.6875 340° North  Level Estimated
12:27PM 27.9100 -82.6875 North  Level Estimated